sensor_id;sensor_type;location;lat;lon;timestamp;temperature;humidity
14378;DHT22;7272;53.668;9.578;2022-08-21T00:01:44;15.60;99.90
14378;DHT22;7272;53.668;9.578;2022-08-21T00:04:47;15.50;99.90
14378;DHT22;7272;53.668;9.578;2022-08-21T00:07:50;15.50;99.90
14378;DHT22;7272;53.668;9.578;2022-08-21T00:10:52;15.50;99.90
14378;DHT22;7272;53.668;9.578;2022-08-21T00:13:54;15.50;99.90
14378;DHT22;7272;53.668;9.578;2022-08-21T00:16:57;15.40;99.90
14378;DHT22;7272;53.668;9.578;2022-08-21T00:19:59;15.40;99.90
14378;DHT22;7272;53.668;9.578;2022-08-21T00:23:01;15.40;99.90
14378;DHT22;7272;53.668;9.578;2022-08-21T00:26:04;15.50;99.90
14378;DHT22;7272;53.668;9.578;2022-08-21T00:29:06;15.40;99.90
14378;DHT22;7272;53.668;9.578;2022-08-21T00:32:09;15.50;99.90
14378;DHT22;7272;53.668;9.578;2022-08-21T00:35:14;15.50;99.90
14378;DHT22;7272;53.668;9.578;2022-08-21T00:38:16;15.40;99.90
14378;DHT22;7272;53.668;9.578;2022-08-21T00:41:18;15.40;99.90
14378;DHT22;7272;53.668;9.578;2022-08-21T00:44:20;15.30;99.90
14378;DHT22;7272;53.668;9.578;2022-08-21T00:47:23;15.30;99.90
14378;DHT22;7272;53.668;9.578;2022-08-21T00:50:27;15.40;99.90
14378;DHT22;7272;53.668;9.578;2022-08-21T00:53:31;15.60;99.90
14378;DHT22;7272;53.668;9.578;2022-08-21T00:56:34;15.50;99.90
14378;DHT22;7272;53.668;9.578;2022-08-21T00:59:38;15.40;99.90
14378;DHT22;7272;53.668;9.578;2022-08-21T01:02:43;15.30;99.90
14378;DHT22;7272;53.668;9.578;2022-08-21T01:05:48;15.20;99.90
14378;DHT22;7272;53.668;9.578;2022-08-21T01:08:50;15.10;99.90
14378;DHT22;7272;53.668;9.578;2022-08-21T01:11:52;15.20;99.90
14378;DHT22;7272;53.668;9.578;2022-08-21T01:14:54;15.30;99.90
14378;DHT22;7272;53.668;9.578;2022-08-21T01:17:58;15.20;99.90
14378;DHT22;7272;53.668;9.578;2022-08-21T01:21:06;15.10;99.90
14378;DHT22;7272;53.668;9.578;2022-08-21T01:24:08;15.10;99.90
14378;DHT22;7272;53.668;9.578;2022-08-21T01:27:10;14.90;99.90
14378;DHT22;7272;53.668;9.578;2022-08-21T01:30:15;14.90;99.90
14378;DHT22;7272;53.668;9.578;2022-08-21T01:33:18;14.80;99.90
14378;DHT22;7272;53.668;9.578;2022-08-21T01:36:23;14.90;99.90
14378;DHT22;7272;53.668;9.578;2022-08-21T01:39:26;14.90;99.90
14378;DHT22;7272;53.668;9.578;2022-08-21T01:42:28;14.80;99.90
14378;DHT22;7272;53.668;9.578;2022-08-21T01:45:30;14.70;99.90
14378;DHT22;7272;53.668;9.578;2022-08-21T01:48:32;14.70;99.90
14378;DHT22;7272;53.668;9.578;2022-08-21T01:51:35;14.80;99.90
14378;DHT22;7272;53.668;9.578;2022-08-21T01:54:38;14.80;99.90
14378;DHT22;7272;53.668;9.578;2022-08-21T01:57:40;14.80;99.90
14378;DHT22;7272;53.668;9.578;2022-08-21T02:00:42;14.80;99.90
14378;DHT22;7272;53.668;9.578;2022-08-21T02:03:44;14.80;99.90
14378;DHT22;7272;53.668;9.578;2022-08-21T02:06:47;14.80;99.90
14378;DHT22;7272;53.668;9.578;2022-08-21T02:09:50;14.80;99.90
14378;DHT22;7272;53.668;9.578;2022-08-21T02:12:52;14.80;99.90
14378;DHT22;7272;53.668;9.578;2022-08-21T02:15:54;14.80;99.90
14378;DHT22;7272;53.668;9.578;2022-08-21T02:18:56;14.80;99.90
14378;DHT22;7272;53.668;9.578;2022-08-21T02:21:59;14.80;99.90
14378;DHT22;7272;53.668;9.578;2022-08-21T02:25:01;14.80;99.90
14378;DHT22;7272;53.668;9.578;2022-08-21T02:28:05;14.90;99.90
14378;DHT22;7272;53.668;9.578;2022-08-21T02:31:09;14.80;99.90
14378;DHT22;7272;53.668;9.578;2022-08-21T02:34:11;14.80;99.90
14378;DHT22;7272;53.668;9.578;2022-08-21T02:37:14;14.80;99.90
14378;DHT22;7272;53.668;9.578;2022-08-21T02:40:19;14.80;99.90
14378;DHT22;7272;53.668;9.578;2022-08-21T02:43:23;14.90;99.90
14378;DHT22;7272;53.668;9.578;2022-08-21T02:46:26;14.80;99.90
14378;DHT22;7272;53.668;9.578;2022-08-21T02:49:28;14.70;99.90
14378;DHT22;7272;53.668;9.578;2022-08-21T02:52:31;14.60;99.90
14378;DHT22;7272;53.668;9.578;2022-08-21T02:55:35;14.50;99.90
14378;DHT22;7272;53.668;9.578;2022-08-21T02:58:39;14.50;99.90
14378;DHT22;7272;53.668;9.578;2022-08-21T03:01:42;14.50;99.90
14378;DHT22;7272;53.668;9.578;2022-08-21T03:04:44;14.60;99.90
14378;DHT22;7272;53.668;9.578;2022-08-21T03:07:48;14.70;99.90
14378;DHT22;7272;53.668;9.578;2022-08-21T03:10:52;14.70;99.90
14378;DHT22;7272;53.668;9.578;2022-08-21T03:13:54;14.60;99.90
14378;DHT22;7272;53.668;9.578;2022-08-21T03:16:56;14.60;99.90
14378;DHT22;7272;53.668;9.578;2022-08-21T03:19:58;14.60;99.90
14378;DHT22;7272;53.668;9.578;2022-08-21T03:23:02;14.50;99.90
14378;DHT22;7272;53.668;9.578;2022-08-21T03:26:04;14.50;99.90
14378;DHT22;7272;53.668;9.578;2022-08-21T03:29:06;14.50;99.90
14378;DHT22;7272;53.668;9.578;2022-08-21T03:32:08;14.50;99.90
14378;DHT22;7272;53.668;9.578;2022-08-21T03:35:11;14.50;99.90
14378;DHT22;7272;53.668;9.578;2022-08-21T03:38:14;14.60;99.90
14378;DHT22;7272;53.668;9.578;2022-08-21T03:41:16;14.60;99.90
14378;DHT22;7272;53.668;9.578;2022-08-21T03:44:18;14.70;99.90
14378;DHT22;7272;53.668;9.578;2022-08-21T03:47:20;14.60;99.90
14378;DHT22;7272;53.668;9.578;2022-08-21T03:50:24;14.60;99.90
14378;DHT22;7272;53.668;9.578;2022-08-21T03:53:28;14.60;99.90
14378;DHT22;7272;53.668;9.578;2022-08-21T03:56:30;14.60;99.90
14378;DHT22;7272;53.668;9.578;2022-08-21T03:59:32;14.70;99.90
14378;DHT22;7272;53.668;9.578;2022-08-21T04:02:34;14.70;99.90
14378;DHT22;7272;53.668;9.578;2022-08-21T04:05:36;14.80;99.90
14378;DHT22;7272;53.668;9.578;2022-08-21T04:08:40;14.80;99.90
14378;DHT22;7272;53.668;9.578;2022-08-21T04:11:43;14.80;99.90
14378;DHT22;7272;53.668;9.578;2022-08-21T04:14:46;14.80;99.90
14378;DHT22;7272;53.668;9.578;2022-08-21T04:17:47;14.90;99.90
14378;DHT22;7272;53.668;9.578;2022-08-21T04:20:51;15.00;99.90
14378;DHT22;7272;53.668;9.578;2022-08-21T04:23:56;15.00;99.90
14378;DHT22;7272;53.668;9.578;2022-08-21T04:26:58;15.10;99.90
14378;DHT22;7272;53.668;9.578;2022-08-21T04:30:00;15.10;99.90
14378;DHT22;7272;53.668;9.578;2022-08-21T04:33:02;15.20;99.90
14378;DHT22;7272;53.668;9.578;2022-08-21T04:36:05;15.20;99.90
14378;DHT22;7272;53.668;9.578;2022-08-21T04:39:09;15.20;99.90
14378;DHT22;7272;53.668;9.578;2022-08-21T04:42:11;15.40;99.90
14378;DHT22;7272;53.668;9.578;2022-08-21T04:45:18;15.40;99.90
14378;DHT22;7272;53.668;9.578;2022-08-21T04:48:23;15.50;99.90
14378;DHT22;7272;53.668;9.578;2022-08-21T04:51:27;15.50;99.90
14378;DHT22;7272;53.668;9.578;2022-08-21T04:54:32;15.60;99.90
14378;DHT22;7272;53.668;9.578;2022-08-21T04:57:34;15.60;99.90
14378;DHT22;7272;53.668;9.578;2022-08-21T05:00:37;15.70;99.90
14378;DHT22;7272;53.668;9.578;2022-08-21T05:03:39;15.80;99.90
14378;DHT22;7272;53.668;9.578;2022-08-21T05:06:44;16.00;99.90
14378;DHT22;7272;53.668;9.578;2022-08-21T05:09:49;16.10;99.90
14378;DHT22;7272;53.668;9.578;2022-08-21T05:12:50;16.10;99.90
14378;DHT22;7272;53.668;9.578;2022-08-21T05:15:53;16.10;99.90
14378;DHT22;7272;53.668;9.578;2022-08-21T05:18:56;16.20;99.90
14378;DHT22;7272;53.668;9.578;2022-08-21T05:21:59;16.20;99.90
14378;DHT22;7272;53.668;9.578;2022-08-21T05:25:03;16.30;99.90
14378;DHT22;7272;53.668;9.578;2022-08-21T05:28:06;16.30;99.90
14378;DHT22;7272;53.668;9.578;2022-08-21T05:31:08;16.60;99.90
14378;DHT22;7272;53.668;9.578;2022-08-21T05:34:10;16.60;99.90
14378;DHT22;7272;53.668;9.578;2022-08-21T05:37:12;16.70;99.90
14378;DHT22;7272;53.668;9.578;2022-08-21T05:40:16;16.70;99.90
14378;DHT22;7272;53.668;9.578;2022-08-21T05:43:19;16.70;99.90
14378;DHT22;7272;53.668;9.578;2022-08-21T05:46:21;16.80;99.90
14378;DHT22;7272;53.668;9.578;2022-08-21T05:49:23;16.90;99.90
14378;DHT22;7272;53.668;9.578;2022-08-21T05:52:25;16.90;99.90
14378;DHT22;7272;53.668;9.578;2022-08-21T05:55:28;17.00;99.90
14378;DHT22;7272;53.668;9.578;2022-08-21T05:58:31;17.00;99.90
14378;DHT22;7272;53.668;9.578;2022-08-21T06:01:34;17.10;99.90
14378;DHT22;7272;53.668;9.578;2022-08-21T06:04:36;17.10;99.90
14378;DHT22;7272;53.668;9.578;2022-08-21T06:07:38;17.20;99.90
14378;DHT22;7272;53.668;9.578;2022-08-21T06:10:41;17.20;99.90
14378;DHT22;7272;53.668;9.578;2022-08-21T06:13:43;17.30;99.90
14378;DHT22;7272;53.668;9.578;2022-08-21T06:16:45;17.40;99.90
14378;DHT22;7272;53.668;9.578;2022-08-21T06:19:51;17.50;99.90
14378;DHT22;7272;53.668;9.578;2022-08-21T06:22:53;17.50;99.90
14378;DHT22;7272;53.668;9.578;2022-08-21T06:25:56;17.50;99.90
14378;DHT22;7272;53.668;9.578;2022-08-21T06:28:58;17.50;99.90
14378;DHT22;7272;53.668;9.578;2022-08-21T06:32:01;17.50;99.90
14378;DHT22;7272;53.668;9.578;2022-08-21T06:35:04;17.60;99.90
14378;DHT22;7272;53.668;9.578;2022-08-21T06:38:06;17.80;99.90
14378;DHT22;7272;53.668;9.578;2022-08-21T06:41:10;17.90;99.90
14378;DHT22;7272;53.668;9.578;2022-08-21T06:44:12;18.00;99.90
14378;DHT22;7272;53.668;9.578;2022-08-21T06:47:14;18.00;99.90
14378;DHT22;7272;53.668;9.578;2022-08-21T06:50:16;18.10;99.90
14378;DHT22;7272;53.668;9.578;2022-08-21T06:53:19;18.10;99.90
14378;DHT22;7272;53.668;9.578;2022-08-21T06:56:23;18.20;99.90
14378;DHT22;7272;53.668;9.578;2022-08-21T06:59:25;18.30;99.90
14378;DHT22;7272;53.668;9.578;2022-08-21T07:02:27;18.30;99.90
14378;DHT22;7272;53.668;9.578;2022-08-21T07:05:30;18.40;99.90
14378;DHT22;7272;53.668;9.578;2022-08-21T07:08:32;18.40;99.90
14378;DHT22;7272;53.668;9.578;2022-08-21T07:11:36;18.50;99.90
14378;DHT22;7272;53.668;9.578;2022-08-21T07:14:38;18.60;99.90
14378;DHT22;7272;53.668;9.578;2022-08-21T07:17:40;18.70;99.90
14378;DHT22;7272;53.668;9.578;2022-08-21T07:20:42;18.80;99.90
14378;DHT22;7272;53.668;9.578;2022-08-21T07:23:46;19.00;99.90
14378;DHT22;7272;53.668;9.578;2022-08-21T07:26:50;19.30;99.90
14378;DHT22;7272;53.668;9.578;2022-08-21T07:29:52;19.40;99.90
14378;DHT22;7272;53.668;9.578;2022-08-21T07:32:54;19.40;99.90
14378;DHT22;7272;53.668;9.578;2022-08-21T07:35:56;19.60;99.90
14378;DHT22;7272;53.668;9.578;2022-08-21T07:39:00;19.70;99.90
14378;DHT22;7272;53.668;9.578;2022-08-21T07:42:03;19.70;99.90
14378;DHT22;7272;53.668;9.578;2022-08-21T07:45:07;19.80;99.90
14378;DHT22;7272;53.668;9.578;2022-08-21T07:48:09;20.00;99.90
14378;DHT22;7272;53.668;9.578;2022-08-21T07:51:14;20.10;99.90
14378;DHT22;7272;53.668;9.578;2022-08-21T07:54:16;20.20;99.90
14378;DHT22;7272;53.668;9.578;2022-08-21T07:57:20;20.40;99.90
14378;DHT22;7272;53.668;9.578;2022-08-21T08:00:24;20.70;99.90
14378;DHT22;7272;53.668;9.578;2022-08-21T08:03:26;20.90;99.90
14378;DHT22;7272;53.668;9.578;2022-08-21T08:06:28;21.10;99.90
14378;DHT22;7272;53.668;9.578;2022-08-21T08:09:31;21.30;99.90
14378;DHT22;7272;53.668;9.578;2022-08-21T08:12:34;21.50;99.90
14378;DHT22;7272;53.668;9.578;2022-08-21T08:15:37;21.70;99.90
14378;DHT22;7272;53.668;9.578;2022-08-21T08:18:39;22.00;99.90
14378;DHT22;7272;53.668;9.578;2022-08-21T08:21:41;22.20;99.90
14378;DHT22;7272;53.668;9.578;2022-08-21T08:24:43;22.40;99.90
14378;DHT22;7272;53.668;9.578;2022-08-21T08:27:46;22.60;99.90
14378;DHT22;7272;53.668;9.578;2022-08-21T08:30:48;22.80;99.90
14378;DHT22;7272;53.668;9.578;2022-08-21T08:33:51;22.90;99.90
14378;DHT22;7272;53.668;9.578;2022-08-21T08:36:53;23.00;99.90
14378;DHT22;7272;53.668;9.578;2022-08-21T08:39:54;23.20;99.90
14378;DHT22;7272;53.668;9.578;2022-08-21T08:42:58;23.40;99.90
14378;DHT22;7272;53.668;9.578;2022-08-21T08:46:03;23.60;99.90
14378;DHT22;7272;53.668;9.578;2022-08-21T08:49:10;23.80;99.90
14378;DHT22;7272;53.668;9.578;2022-08-21T08:52:18;24.00;99.90
14378;DHT22;7272;53.668;9.578;2022-08-21T08:55:26;24.10;99.90
14378;DHT22;7272;53.668;9.578;2022-08-21T08:58:36;24.20;99.90
14378;DHT22;7272;53.668;9.578;2022-08-21T09:01:39;24.40;99.90
14378;DHT22;7272;53.668;9.578;2022-08-21T09:04:44;24.50;99.90
14378;DHT22;7272;53.668;9.578;2022-08-21T09:07:53;24.70;99.90
14378;DHT22;7272;53.668;9.578;2022-08-21T09:11:02;24.90;99.90
14378;DHT22;7272;53.668;9.578;2022-08-21T09:14:24;25.40;99.90
14378;DHT22;7272;53.668;9.578;2022-08-21T09:17:44;25.50;99.90
14378;DHT22;7272;53.668;9.578;2022-08-21T09:20:57;25.30;99.90
14378;DHT22;7272;53.668;9.578;2022-08-21T09:24:14;25.30;99.90
14378;DHT22;7272;53.668;9.578;2022-08-21T09:27:20;25.40;99.90
14378;DHT22;7272;53.668;9.578;2022-08-21T09:30:27;25.60;99.90
14378;DHT22;7272;53.668;9.578;2022-08-21T09:33:29;25.70;99.90
14378;DHT22;7272;53.668;9.578;2022-08-21T09:36:37;25.80;99.90
14378;DHT22;7272;53.668;9.578;2022-08-21T09:39:40;25.90;99.90
14378;DHT22;7272;53.668;9.578;2022-08-21T09:42:42;26.00;99.90
14378;DHT22;7272;53.668;9.578;2022-08-21T09:45:46;26.10;99.90
14378;DHT22;7272;53.668;9.578;2022-08-21T09:48:50;26.30;99.90
14378;DHT22;7272;53.668;9.578;2022-08-21T09:51:54;26.30;99.90
14378;DHT22;7272;53.668;9.578;2022-08-21T09:54:56;26.40;99.90
14378;DHT22;7272;53.668;9.578;2022-08-21T09:57:59;26.50;99.90
14378;DHT22;7272;53.668;9.578;2022-08-21T10:01:03;26.50;99.90
14378;DHT22;7272;53.668;9.578;2022-08-21T10:04:07;26.40;99.90
14378;DHT22;7272;53.668;9.578;2022-08-21T10:07:12;26.50;99.90
14378;DHT22;7272;53.668;9.578;2022-08-21T10:10:17;26.70;99.90
14378;DHT22;7272;53.668;9.578;2022-08-21T10:13:24;26.90;99.90
14378;DHT22;7272;53.668;9.578;2022-08-21T10:16:36;26.90;99.90
14378;DHT22;7272;53.668;9.578;2022-08-21T10:19:49;26.90;99.90
14378;DHT22;7272;53.668;9.578;2022-08-21T10:23:03;27.00;99.90
14378;DHT22;7272;53.668;9.578;2022-08-21T10:26:26;27.40;99.90
14378;DHT22;7272;53.668;9.578;2022-08-21T10:29:43;27.40;99.90
14378;DHT22;7272;53.668;9.578;2022-08-21T10:33:05;27.50;99.90
14378;DHT22;7272;53.668;9.578;2022-08-21T10:36:13;27.60;99.90
14378;DHT22;7272;53.668;9.578;2022-08-21T10:39:21;27.70;99.90
14378;DHT22;7272;53.668;9.578;2022-08-21T10:42:33;27.80;99.90
14378;DHT22;7272;53.668;9.578;2022-08-21T10:45:46;28.00;99.90
14378;DHT22;7272;53.668;9.578;2022-08-21T10:48:56;28.10;99.90
14378;DHT22;7272;53.668;9.578;2022-08-21T10:52:14;28.20;99.90
14378;DHT22;7272;53.668;9.578;2022-08-21T10:55:23;28.10;99.90
14378;DHT22;7272;53.668;9.578;2022-08-21T10:58:30;28.20;99.90
14378;DHT22;7272;53.668;9.578;2022-08-21T11:01:38;28.20;99.90
14378;DHT22;7272;53.668;9.578;2022-08-21T11:04:48;28.40;99.90
14378;DHT22;7272;53.668;9.578;2022-08-21T11:07:54;28.60;99.90
14378;DHT22;7272;53.668;9.578;2022-08-21T11:11:01;28.60;99.90
14378;DHT22;7272;53.668;9.578;2022-08-21T11:14:16;28.20;99.90
14378;DHT22;7272;53.668;9.578;2022-08-21T11:17:24;28.00;99.90
14378;DHT22;7272;53.668;9.578;2022-08-21T11:20:36;27.70;99.90
14378;DHT22;7272;53.668;9.578;2022-08-21T11:23:43;27.60;99.90
14378;DHT22;7272;53.668;9.578;2022-08-21T11:26:51;27.70;99.90
14378;DHT22;7272;53.668;9.578;2022-08-21T11:29:56;28.10;99.90
14378;DHT22;7272;53.668;9.578;2022-08-21T11:33:08;28.20;99.90
14378;DHT22;7272;53.668;9.578;2022-08-21T11:36:20;28.10;99.90
14378;DHT22;7272;53.668;9.578;2022-08-21T11:39:30;28.00;99.90
14378;DHT22;7272;53.668;9.578;2022-08-21T11:42:41;27.90;99.90
14378;DHT22;7272;53.668;9.578;2022-08-21T11:45:49;28.00;99.90
14378;DHT22;7272;53.668;9.578;2022-08-21T11:49:02;28.30;99.90
14378;DHT22;7272;53.668;9.578;2022-08-21T11:52:14;28.50;99.90
14378;DHT22;7272;53.668;9.578;2022-08-21T11:55:24;28.40;99.90
14378;DHT22;7272;53.668;9.578;2022-08-21T11:58:32;28.50;99.90
14378;DHT22;7272;53.668;9.578;2022-08-21T12:01:40;28.30;99.90
14378;DHT22;7272;53.668;9.578;2022-08-21T12:04:47;28.40;99.90
14378;DHT22;7272;53.668;9.578;2022-08-21T12:08:02;28.40;99.90
14378;DHT22;7272;53.668;9.578;2022-08-21T12:11:08;28.60;99.90
14378;DHT22;7272;53.668;9.578;2022-08-21T12:14:13;28.40;99.90
14378;DHT22;7272;53.668;9.578;2022-08-21T12:17:19;28.00;99.90
14378;DHT22;7272;53.668;9.578;2022-08-21T12:20:36;28.00;99.90
14378;DHT22;7272;53.668;9.578;2022-08-21T12:23:46;28.40;99.90
14378;DHT22;7272;53.668;9.578;2022-08-21T12:26:50;28.40;99.90
14378;DHT22;7272;53.668;9.578;2022-08-21T12:29:55;28.40;99.90
14378;DHT22;7272;53.668;9.578;2022-08-21T12:33:00;28.60;99.90
14378;DHT22;7272;53.668;9.578;2022-08-21T12:36:04;28.90;99.90
14378;DHT22;7272;53.668;9.578;2022-08-21T12:39:14;29.50;99.90
14378;DHT22;7272;53.668;9.578;2022-08-21T12:42:29;29.80;99.90
14378;DHT22;7272;53.668;9.578;2022-08-21T12:45:36;29.80;99.90
14378;DHT22;7272;53.668;9.578;2022-08-21T12:48:42;29.70;99.90
14378;DHT22;7272;53.668;9.578;2022-08-21T12:51:50;29.70;99.90
14378;DHT22;7272;53.668;9.578;2022-08-21T12:54:55;29.00;99.90
14378;DHT22;7272;53.668;9.578;2022-08-21T12:57:57;28.50;99.90
14378;DHT22;7272;53.668;9.578;2022-08-21T13:01:03;28.50;99.90
14378;DHT22;7272;53.668;9.578;2022-08-21T13:04:09;28.60;99.90
14378;DHT22;7272;53.668;9.578;2022-08-21T13:07:19;28.70;99.90
14378;DHT22;7272;53.668;9.578;2022-08-21T13:10:28;28.30;99.90
14378;DHT22;7272;53.668;9.578;2022-08-21T13:13:31;28.20;99.90
14378;DHT22;7272;53.668;9.578;2022-08-21T13:16:34;28.00;99.90
14378;DHT22;7272;53.668;9.578;2022-08-21T13:19:36;27.50;99.90
14378;DHT22;7272;53.668;9.578;2022-08-21T13:22:42;27.50;99.90
14378;DHT22;7272;53.668;9.578;2022-08-21T13:25:46;27.80;99.90
14378;DHT22;7272;53.668;9.578;2022-08-21T13:28:49;27.90;99.90
14378;DHT22;7272;53.668;9.578;2022-08-21T13:31:55;28.00;99.90
14378;DHT22;7272;53.668;9.578;2022-08-21T13:34:59;28.10;99.90
14378;DHT22;7272;53.668;9.578;2022-08-21T13:38:01;28.20;99.90
14378;DHT22;7272;53.668;9.578;2022-08-21T13:41:11;28.10;99.90
14378;DHT22;7272;53.668;9.578;2022-08-21T13:44:19;28.10;99.90
14378;DHT22;7272;53.668;9.578;2022-08-21T13:47:21;27.70;99.90
14378;DHT22;7272;53.668;9.578;2022-08-21T13:50:24;27.40;99.90
14378;DHT22;7272;53.668;9.578;2022-08-21T13:53:29;27.30;99.90
14378;DHT22;7272;53.668;9.578;2022-08-21T13:56:42;27.30;99.90
14378;DHT22;7272;53.668;9.578;2022-08-21T13:59:44;27.30;99.90
14378;DHT22;7272;53.668;9.578;2022-08-21T14:02:49;27.50;99.90
14378;DHT22;7272;53.668;9.578;2022-08-21T14:05:53;27.50;99.90
14378;DHT22;7272;53.668;9.578;2022-08-21T14:08:58;27.50;99.90
14378;DHT22;7272;53.668;9.578;2022-08-21T14:12:12;27.50;99.90
14378;DHT22;7272;53.668;9.578;2022-08-21T14:15:35;27.50;99.90
14378;DHT22;7272;53.668;9.578;2022-08-21T14:18:44;27.70;99.90
14378;DHT22;7272;53.668;9.578;2022-08-21T14:21:46;27.90;99.90
14378;DHT22;7272;53.668;9.578;2022-08-21T14:24:48;27.90;99.90
14378;DHT22;7272;53.668;9.578;2022-08-21T14:27:54;27.60;99.90
14378;DHT22;7272;53.668;9.578;2022-08-21T14:30:57;27.40;99.90
14378;DHT22;7272;53.668;9.578;2022-08-21T14:34:00;27.00;99.90
14378;DHT22;7272;53.668;9.578;2022-08-21T14:37:02;26.70;99.90
14378;DHT22;7272;53.668;9.578;2022-08-21T14:40:05;26.60;99.90
14378;DHT22;7272;53.668;9.578;2022-08-21T14:43:08;26.70;99.90
14378;DHT22;7272;53.668;9.578;2022-08-21T14:46:13;26.70;99.90
14378;DHT22;7272;53.668;9.578;2022-08-21T14:49:19;26.70;99.90
14378;DHT22;7272;53.668;9.578;2022-08-21T14:52:21;26.70;99.90
14378;DHT22;7272;53.668;9.578;2022-08-21T14:55:24;26.60;99.90
14378;DHT22;7272;53.668;9.578;2022-08-21T14:58:29;26.60;99.90
14378;DHT22;7272;53.668;9.578;2022-08-21T15:01:32;26.40;99.90
14378;DHT22;7272;53.668;9.578;2022-08-21T15:04:36;26.50;99.90
14378;DHT22;7272;53.668;9.578;2022-08-21T15:07:38;26.50;99.90
14378;DHT22;7272;53.668;9.578;2022-08-21T15:10:39;26.40;99.90
14378;DHT22;7272;53.668;9.578;2022-08-21T15:13:43;26.30;99.90
14378;DHT22;7272;53.668;9.578;2022-08-21T15:16:45;26.30;99.90
14378;DHT22;7272;53.668;9.578;2022-08-21T15:19:48;26.30;99.90
14378;DHT22;7272;53.668;9.578;2022-08-21T15:22:50;26.20;99.90
14378;DHT22;7272;53.668;9.578;2022-08-21T15:25:52;26.00;99.90
14378;DHT22;7272;53.668;9.578;2022-08-21T15:28:56;25.90;99.90
14378;DHT22;7272;53.668;9.578;2022-08-21T15:32:00;25.80;99.90
14378;DHT22;7272;53.668;9.578;2022-08-21T15:35:02;25.70;99.90
14378;DHT22;7272;53.668;9.578;2022-08-21T15:38:04;25.70;99.90
14378;DHT22;7272;53.668;9.578;2022-08-21T15:41:07;25.50;99.90
14378;DHT22;7272;53.668;9.578;2022-08-21T15:44:11;25.50;99.90
14378;DHT22;7272;53.668;9.578;2022-08-21T15:47:16;25.20;99.90
14378;DHT22;7272;53.668;9.578;2022-08-21T15:50:18;25.00;99.90
14378;DHT22;7272;53.668;9.578;2022-08-21T15:53:21;24.90;99.90
14378;DHT22;7272;53.668;9.578;2022-08-21T15:56:24;24.90;99.90
14378;DHT22;7272;53.668;9.578;2022-08-21T15:59:32;24.80;99.90
14378;DHT22;7272;53.668;9.578;2022-08-21T16:02:43;24.80;99.90
14378;DHT22;7272;53.668;9.578;2022-08-21T16:05:46;24.70;99.90
14378;DHT22;7272;53.668;9.578;2022-08-21T16:08:49;24.70;99.90
14378;DHT22;7272;53.668;9.578;2022-08-21T16:11:51;24.60;99.90
14378;DHT22;7272;53.668;9.578;2022-08-21T16:14:55;24.50;99.90
14378;DHT22;7272;53.668;9.578;2022-08-21T16:17:57;24.50;99.90
14378;DHT22;7272;53.668;9.578;2022-08-21T16:20:59;24.40;99.90
14378;DHT22;7272;53.668;9.578;2022-08-21T16:24:01;24.30;99.90
14378;DHT22;7272;53.668;9.578;2022-08-21T16:27:04;24.20;99.90
14378;DHT22;7272;53.668;9.578;2022-08-21T16:30:09;24.10;99.90
14378;DHT22;7272;53.668;9.578;2022-08-21T16:33:20;24.10;99.90
14378;DHT22;7272;53.668;9.578;2022-08-21T16:36:22;24.20;99.90
14378;DHT22;7272;53.668;9.578;2022-08-21T16:39:25;24.10;99.90
14378;DHT22;7272;53.668;9.578;2022-08-21T16:42:27;24.20;99.90
14378;DHT22;7272;53.668;9.578;2022-08-21T16:45:31;24.10;99.90
14378;DHT22;7272;53.668;9.578;2022-08-21T16:48:33;23.80;99.90
14378;DHT22;7272;53.668;9.578;2022-08-21T16:51:35;23.70;99.90
14378;DHT22;7272;53.668;9.578;2022-08-21T16:54:37;23.70;99.90
14378;DHT22;7272;53.668;9.578;2022-08-21T16:57:39;23.60;99.90
14378;DHT22;7272;53.668;9.578;2022-08-21T17:00:42;23.60;99.90
14378;DHT22;7272;53.668;9.578;2022-08-21T17:03:46;23.60;99.90
14378;DHT22;7272;53.668;9.578;2022-08-21T17:06:50;23.50;99.90
14378;DHT22;7272;53.668;9.578;2022-08-21T17:09:52;23.40;99.90
14378;DHT22;7272;53.668;9.578;2022-08-21T17:12:57;23.30;99.90
14378;DHT22;7272;53.668;9.578;2022-08-21T17:16:02;23.30;99.90
14378;DHT22;7272;53.668;9.578;2022-08-21T17:19:04;23.10;99.90
14378;DHT22;7272;53.668;9.578;2022-08-21T17:22:07;23.10;99.90
14378;DHT22;7272;53.668;9.578;2022-08-21T17:25:09;22.90;99.90
14378;DHT22;7272;53.668;9.578;2022-08-21T17:28:14;22.70;99.90
14378;DHT22;7272;53.668;9.578;2022-08-21T17:31:17;22.50;99.90
14378;DHT22;7272;53.668;9.578;2022-08-21T17:34:20;22.40;99.90
14378;DHT22;7272;53.668;9.578;2022-08-21T17:37:22;22.40;99.90
14378;DHT22;7272;53.668;9.578;2022-08-21T17:40:24;22.40;99.90
14378;DHT22;7272;53.668;9.578;2022-08-21T17:43:26;22.30;99.90
14378;DHT22;7272;53.668;9.578;2022-08-21T17:46:30;22.20;99.90
14378;DHT22;7272;53.668;9.578;2022-08-21T17:49:32;22.10;99.90
14378;DHT22;7272;53.668;9.578;2022-08-21T17:52:35;22.00;99.90
14378;DHT22;7272;53.668;9.578;2022-08-21T17:55:37;21.90;99.90
14378;DHT22;7272;53.668;9.578;2022-08-21T17:58:48;22.00;99.90
14378;DHT22;7272;53.668;9.578;2022-08-21T18:01:52;21.90;99.90
14378;DHT22;7272;53.668;9.578;2022-08-21T18:05:00;21.90;99.90
14378;DHT22;7272;53.668;9.578;2022-08-21T18:08:02;21.80;99.90
14378;DHT22;7272;53.668;9.578;2022-08-21T18:11:05;21.70;99.90
14378;DHT22;7272;53.668;9.578;2022-08-21T18:14:07;21.90;99.90
14378;DHT22;7272;53.668;9.578;2022-08-21T18:17:13;21.90;99.90
14378;DHT22;7272;53.668;9.578;2022-08-21T18:20:21;21.80;99.90
14378;DHT22;7272;53.668;9.578;2022-08-21T18:23:23;21.70;99.90
14378;DHT22;7272;53.668;9.578;2022-08-21T18:26:28;21.70;99.90
14378;DHT22;7272;53.668;9.578;2022-08-21T18:29:32;21.60;99.90
14378;DHT22;7272;53.668;9.578;2022-08-21T18:32:36;21.70;99.90
14378;DHT22;7272;53.668;9.578;2022-08-21T18:35:38;21.60;99.90
14378;DHT22;7272;53.668;9.578;2022-08-21T18:38:40;21.50;99.90
14378;DHT22;7272;53.668;9.578;2022-08-21T18:41:43;21.50;99.90
14378;DHT22;7272;53.668;9.578;2022-08-21T18:44:47;21.50;99.90
14378;DHT22;7272;53.668;9.578;2022-08-21T18:47:53;21.40;99.90
14378;DHT22;7272;53.668;9.578;2022-08-21T18:50:56;21.30;99.90
14378;DHT22;7272;53.668;9.578;2022-08-21T18:53:58;21.30;99.90
14378;DHT22;7272;53.668;9.578;2022-08-21T18:57:00;21.30;99.90
14378;DHT22;7272;53.668;9.578;2022-08-21T19:00:04;21.20;99.90
14378;DHT22;7272;53.668;9.578;2022-08-21T19:03:13;21.10;99.90
14378;DHT22;7272;53.668;9.578;2022-08-21T19:06:16;21.00;99.90
14378;DHT22;7272;53.668;9.578;2022-08-21T19:09:18;20.90;99.90
14378;DHT22;7272;53.668;9.578;2022-08-21T19:12:23;21.00;99.90
14378;DHT22;7272;53.668;9.578;2022-08-21T19:15:26;21.00;99.90
14378;DHT22;7272;53.668;9.578;2022-08-21T19:18:32;20.80;99.90
14378;DHT22;7272;53.668;9.578;2022-08-21T19:21:35;20.70;99.90
14378;DHT22;7272;53.668;9.578;2022-08-21T19:24:38;20.60;99.90
14378;DHT22;7272;53.668;9.578;2022-08-21T19:27:42;20.50;99.90
14378;DHT22;7272;53.668;9.578;2022-08-21T19:30:51;20.50;99.90
14378;DHT22;7272;53.668;9.578;2022-08-21T19:33:59;20.50;99.90
14378;DHT22;7272;53.668;9.578;2022-08-21T19:37:02;20.30;99.90
14378;DHT22;7272;53.668;9.578;2022-08-21T19:40:05;20.20;99.90
14378;DHT22;7272;53.668;9.578;2022-08-21T19:43:07;20.10;99.90